Time;durP1;ratioP1;P1;durP2;ratioP2;P2;SDS_P1;SDS_P2;PMS_P1;PMS_P2;Temp;Humidity;BMP_temperature;BMP_pressure;BME280_temperature;BME280_humidity;BME280_pressure;Samples;Min_cycle;Max_cycle;Signal;HPM_P1;HPM_P2
2024/04/01 00:01:16;;;;;;;7.05;1.70;;;14.30;54.90;;;10.23;89.65;93124.06;4988574;28;20393;-56
2024/04/01 00:03:42;;;;;;;7.00;1.40;;;14.30;54.80;;;10.20;91.78;93120.16;4972492;28;20038;-56
2024/04/01 00:06:08;;;;;;;11.30;1.80;;;14.40;54.80;;;10.27;88.99;93111.69;4971582;28;20358;-54
2024/04/01 00:08:33;;;;;;;6.63;1.90;;;14.40;54.70;;;10.36;88.45;93098.34;4972418;28;20028;-57
2024/04/01 00:10:59;;;;;;;5.65;1.55;;;14.50;54.60;;;10.38;87.75;93082.84;4971504;28;20110;-55
2024/04/01 00:13:25;;;;;;;4.32;1.67;;;14.60;54.70;;;10.48;87.93;93095.00;4972405;28;20030;-53
2024/04/01 00:15:51;;;;;;;7.60;1.75;;;14.60;54.60;;;10.53;88.00;93097.44;4971395;28;20436;-53
2024/04/01 00:18:17;;;;;;;5.28;1.50;;;14.60;54.50;;;10.48;89.68;93087.78;4969697;28;20034;-50
2024/04/01 00:20:53;;;;;;;7.90;1.90;;;14.60;54.50;;;10.45;89.63;93090.31;4973011;28;20018;-54
2024/04/01 00:23:19;;;;;;;3.17;1.35;;;14.70;54.60;;;10.53;88.58;93060.97;4966709;28;20031;-56
2024/04/01 00:25:45;;;;;;;10.07;2.17;;;14.70;54.70;;;10.60;88.21;93042.59;4971932;28;20022;-56
2024/04/01 00:28:11;;;;;;;10.50;2.65;;;14.80;54.80;;;10.63;88.76;93035.84;4967749;28;20397;-56
2024/04/01 00:30:37;;;;;;;7.72;2.17;;;14.80;54.90;;;10.62;89.03;93045.72;4972081;28;20042;-57
2024/04/01 00:33:03;;;;;;;6.97;2.08;;;14.80;55.00;;;10.71;89.39;93055.50;4972675;28;20512;-55
2024/04/01 00:35:29;;;;;;;5.03;1.88;;;14.90;55.10;;;10.68;90.34;93058.81;4969644;28;20110;-52
2024/04/01 00:37:55;;;;;;;8.68;2.30;;;14.90;55.00;;;10.60;91.72;93031.19;4972296;28;20097;-51
2024/04/01 00:40:21;;;;;;;14.27;2.50;;;14.90;55.20;;;10.65;91.66;93070.88;4967608;28;20027;-55
2024/04/01 00:42:47;;;;;;;8.75;2.45;;;14.90;55.20;;;10.67;91.95;93090.00;4973843;28;20033;-54
2024/04/01 00:45:14;;;;;;;12.07;2.42;;;14.90;55.10;;;10.55;93.13;93072.06;4976314;28;20033;-55
2024/04/01 00:47:41;;;;;;;5.22;1.95;;;14.90;55.20;;;10.17;96.60;93064.16;4969767;28;20507;-57
2024/04/01 00:50:08;;;;;;;5.95;2.15;;;14.80;55.50;;;10.31;95.75;93088.69;4972922;28;20045;-57
2024/04/01 00:52:35;;;;;;;7.85;2.13;;;14.80;55.50;;;10.35;95.30;93060.31;4967859;28;20037;-57
2024/04/01 00:55:01;;;;;;;8.35;1.90;;;14.70;55.50;;;10.25;95.60;93054.56;4972862;28;20022;-54
2024/04/01 00:57:27;;;;;;;11.40;2.67;;;14.70;55.50;;;10.18;95.74;93047.09;4970314;28;20046;-55
2024/04/01 00:59:54;;;;;;;7.55;1.90;;;14.60;55.60;;;10.23;95.70;93035.50;4971318;28;20037;-56
2024/04/01 01:02:22;;;;;;;9.05;1.85;;;14.60;55.70;;;10.16;96.44;93017.38;4965764;28;20124;-57
2024/04/01 01:04:50;;;;;;;6.28;2.05;;;14.60;55.70;;;10.08;96.66;92994.28;4978602;28;20182;-57
2024/04/01 01:07:17;;;;;;;4.75;1.90;;;14.60;55.90;;;10.10;96.63;93021.34;4970279;28;20112;-53
2024/04/01 01:09:45;;;;;;;8.55;2.33;;;14.50;56.00;;;10.13;95.72;93021.47;4972196;28;20019;-56
2024/04/01 01:12:11;;;;;;;9.23;2.60;;;14.50;56.00;;;10.15;96.14;93002.50;4971337;28;20112;-57
2024/04/01 01:14:37;;;;;;;10.70;2.22;;;14.50;56.00;;;10.04;96.07;92986.16;4971855;28;20121;-53
2024/04/01 01:17:03;;;;;;;10.90;2.20;;;14.50;56.00;;;10.06;95.03;93007.09;4969700;28;20069;-57
2024/04/01 01:19:30;;;;;;;8.88;2.25;;;14.40;55.90;;;10.13;95.33;93021.47;4969439;28;20030;-57
2024/04/01 01:22:06;;;;;;;8.82;1.67;;;14.40;55.90;;;10.10;95.45;93021.34;4965999;28;20064;-54
2024/04/01 01:24:33;;;;;;;7.50;2.13;;;14.40;56.10;;;9.99;95.99;93033.44;4969966;28;20403;-53
2024/04/01 01:29:29;;;;;;;6.05;2.03;;;14.30;55.90;;;9.74;96.13;93025.28;4965463;28;20125;-53
2024/04/01 01:32:00;;;;;;;4.07;1.55;;;14.20;55.90;;;9.70;91.59;93025.16;4971291;28;20423;-49
2024/04/01 01:34:28;;;;;;;5.72;1.63;;;14.20;55.90;;;9.79;94.96;93009.16;4970355;28;20037;-50
2024/04/01 01:36:56;;;;;;;4.82;1.60;;;14.20;56.00;;;9.77;95.21;92991.97;4971176;28;20109;-50
2024/04/01 01:39:22;;;;;;;11.27;2.17;;;14.20;56.00;;;9.76;92.82;92977.91;4969318;28;20061;-53
2024/04/01 01:41:48;;;;;;;12.45;1.90;;;14.10;55.90;;;9.75;93.26;92965.72;4970458;28;20030;-49
2024/04/01 01:44:14;;;;;;;6.80;1.38;;;14.10;55.80;;;9.73;91.30;92957.28;4991854;28;20041;-52
2024/04/01 01:46:40;;;;;;;4.65;1.20;;;14.20;56.10;;;9.70;92.68;92974.66;4970546;28;20026;-54
2024/04/01 01:49:06;;;;;;;6.25;1.42;;;14.10;55.80;;;9.67;92.10;92959.34;4970826;28;20026;-52
2024/04/01 01:51:32;;;;;;;4.60;1.67;;;14.10;55.70;;;9.63;91.39;92970.94;4971534;28;20092;-49
2024/04/01 01:53:58;;;;;;;4.10;1.33;;;14.10;55.70;;;9.59;91.78;92980.66;4969942;28;20400;-49
2024/04/01 01:56:24;;;;;;;4.80;1.25;;;14.00;55.70;;;9.56;92.49;92975.97;4970991;28;20429;-48
2024/04/01 01:58:51;;;;;;;2.60;1.13;;;14.00;55.70;;;9.49;91.92;92981.78;4970001;28;20026;-47
2024/04/01 02:01:17;;;;;;;3.38;0.80;;;13.90;55.70;;;9.41;92.77;92994.03;4970662;28;20109;-49
2024/04/01 02:03:46;;;;;;;3.08;1.15;;;13.90;55.70;;;9.39;92.87;92993.56;4970358;28;20126;-49
2024/04/01 02:06:15;;;;;;;4.65;1.20;;;13.90;55.70;;;9.35;92.30;92981.25;4970295;28;20481;-47
2024/04/01 02:08:41;;;;;;;3.78;1.20;;;13.90;55.70;;;9.21;92.67;92962.84;4970304;28;20046;-50
2024/04/01 02:11:12;;;;;;;3.08;1.00;;;13.80;55.60;;;9.15;92.61;92967.59;4969943;28;20106;-47
2024/04/01 02:13:39;;;;;;;9.13;1.20;;;13.80;55.70;;;9.15;91.62;92964.13;4965331;28;20026;-47
2024/04/01 02:16:11;;;;;;;6.20;1.17;;;13.70;55.60;;;9.16;91.61;92971.78;4966957;28;20022;-50
2024/04/01 02:18:37;;;;;;;2.25;0.93;;;13.70;55.70;;;9.15;90.88;92959.63;4963478;28;20042;-54
2024/04/01 02:21:04;;;;;;;4.60;0.88;;;13.60;55.60;;;9.11;91.68;92947.28;4966412;28;20206;-50
2024/04/01 02:23:34;;;;;;;1.98;0.70;;;13.60;56.30;;;9.13;91.62;92961.03;4967374;28;20026;-48
2024/04/01 02:26:04;;;;;;;3.95;1.00;;;13.60;55.60;;;9.15;90.18;92982.72;4969447;28;20033;-47
2024/04/01 02:28:32;;;;;;;3.28;1.30;;;13.60;55.70;;;9.14;93.24;92973.97;4967054;28;20081;-47
2024/04/01 02:30:59;;;;;;;8.20;1.30;;;13.60;55.80;;;9.15;94.09;92964.94;4969057;28;20026;-48
2024/04/01 02:33:27;;;;;;;4.43;1.40;;;13.60;55.80;;;9.13;94.32;92959.16;4968131;28;20038;-48
2024/04/01 02:35:53;;;;;;;6.90;1.50;;;13.60;55.90;;;9.15;94.61;92970.25;4969550;28;20030;-54
2024/04/01 02:38:20;;;;;;;5.43;0.95;;;13.60;55.90;;;9.19;93.95;92988.97;4968244;28;20029;-49
2024/04/01 02:40:47;;;;;;;4.68;1.05;;;13.60;56.00;;;9.16;93.04;92998.34;4969460;28;20080;-54
2024/04/01 02:43:14;;;;;;;2.80;0.90;;;13.60;55.90;;;9.13;93.63;92998.97;4968916;28;20022;-51
2024/04/01 02:45:41;;;;;;;2.60;1.13;;;13.60;56.00;;;9.07;94.81;92994.16;4968616;28;20030;-54
2024/04/01 02:48:08;;;;;;;2.75;1.40;;;13.60;56.00;;;9.10;95.57;93012.91;4968986;28;20028;-52
2024/04/01 02:50:37;;;;;;;4.07;1.30;;;13.60;56.10;;;9.16;95.44;93008.97;4968001;28;20514;-54
2024/04/01 02:53:03;;;;;;;2.47;1.00;;;13.60;56.20;;;9.15;95.23;93017.25;4968078;28;20030;-49
2024/04/01 02:55:29;;;;;;;2.63;1.40;;;13.60;56.20;;;9.15;95.98;93022.56;4967276;28;20025;-51
2024/04/01 02:57:55;;;;;;;4.65;1.58;;;13.60;56.20;;;9.12;97.17;93028.50;4966795;28;20388;-55
2024/04/01 03:00:22;;;;;;;4.35;1.65;;;13.60;56.40;;;9.12;96.79;93034.63;4964865;28;20156;-48
2024/04/01 03:02:50;;;;;;;3.80;1.92;;;13.60;56.40;;;9.12;97.28;93037.28;4967960;28;20023;-50
2024/04/01 03:05:18;;;;;;;5.88;1.80;;;13.60;56.50;;;9.11;98.46;93043.66;4966425;28;20041;-48
2024/04/01 03:07:46;;;;;;;7.63;2.20;;;13.60;56.70;;;9.13;99.90;93035.38;4967467;28;20476;-51
2024/04/01 03:10:13;;;;;;;7.05;2.00;;;13.60;56.80;;;9.17;100.00;93042.38;4967917;28;20038;-51
2024/04/01 03:12:42;;;;;;;9.85;2.13;;;13.60;57.00;;;9.17;100.00;93052.25;4966163;28;20022;-49
2024/04/01 03:15:10;;;;;;;7.03;2.45;;;13.60;57.20;;;9.20;100.00;93062.22;4973805;28;20081;-51
2024/04/01 03:17:37;;;;;;;10.82;2.58;;;13.60;57.30;;;9.20;100.00;93063.00;4972752;28;20045;-50
2024/04/01 03:20:06;;;;;;;10.18;2.75;;;13.60;57.40;;;9.19;100.00;93061.47;4974276;28;20042;-49
2024/04/01 03:22:32;;;;;;;6.80;2.35;;;13.60;57.60;;;9.21;100.00;93067.25;4971299;28;20022;-50
2024/04/01 03:24:58;;;;;;;6.80;2.65;;;13.60;57.70;;;9.23;100.00;93073.00;4974100;28;20034;-50
2024/04/01 03:27:24;;;;;;;7.40;2.63;;;13.60;57.80;;;9.21;100.00;93074.41;4973573;28;20068;-52
2024/04/01 03:29:50;;;;;;;11.25;2.30;;;13.60;57.90;;;9.13;100.00;93059.28;4972925;28;20061;-49
2024/04/01 03:32:16;;;;;;;8.30;2.00;;;13.60;57.90;;;9.18;100.00;93077.69;4974657;28;20030;-50
2024/04/01 03:34:47;;;;;;;9.55;2.17;;;13.60;58.00;;;9.18;100.00;93080.34;4973233;28;20048;-53
2024/04/01 03:37:14;;;;;;;6.03;2.10;;;13.60;58.20;;;9.12;100.00;93093.03;4974196;28;20469;-49
2024/04/01 03:39:46;;;;;;;7.75;2.45;;;13.60;58.20;;;9.08;100.00;93105.38;4973756;28;20092;-52
2024/04/01 03:42:15;;;;;;;9.18;2.40;;;13.60;58.40;;;9.09;100.00;93112.25;4972508;28;20022;-50
2024/04/01 03:44:42;;;;;;;9.80;2.38;;;13.60;58.60;;;9.14;100.00;93135.97;4974815;28;20033;-49
2024/04/01 03:47:08;;;;;;;12.93;2.92;;;13.50;58.70;;;9.23;100.00;93154.56;4972599;28;20022;-53
2024/04/01 03:49:35;;;;;;;9.95;2.53;;;13.60;59.00;;;9.26;100.00;93161.91;4973925;28;20113;-54
2024/04/01 03:52:00;;;;;;;6.80;2.90;;;13.60;59.20;;;9.31;100.00;93174.22;4972116;28;20065;-50
2024/04/01 03:54:26;;;;;;;9.65;3.28;;;13.60;59.40;;;9.31;100.00;93177.69;4973478;28;20026;-49
2024/04/01 03:56:52;;;;;;;11.30;3.40;;;13.60;59.80;;;9.33;100.00;93206.59;4973866;28;20034;-53
2024/04/01 03:59:18;;;;;;;11.07;4.03;;;13.70;60.20;;;9.32;100.00;93211.13;4971077;28;20034;-54
2024/04/01 04:01:45;;;;;;;13.30;5.00;;;13.70;60.70;;;9.31;100.00;93222.88;4972424;28;20511;-55
2024/04/01 04:04:11;;;;;;;11.82;5.05;;;13.70;61.30;;;9.35;100.00;93218.47;4972398;28;20038;-55
2024/04/01 04:06:41;;;;;;;9.27;5.68;;;13.70;61.50;;;9.35;100.00;93238.94;4973260;28;20030;-53
2024/04/01 04:09:16;;;;;;;11.65;5.47;;;13.70;61.70;;;9.39;100.00;93237.22;4972128;28;20037;-54
2024/04/01 04:11:49;;;;;;;14.82;5.32;;;13.80;61.80;;;9.38;100.00;93235.66;4971602;28;20034;-54
2024/04/01 04:14:24;;;;;;;;;;;13.80;62.40;;;9.37;100.00;93245.53;4970248;28;20120;-49
2024/04/01 04:16:52;;;;;;;12.57;5.07;;;13.70;61.80;;;9.35;100.00;93244.25;4987245;28;20316;-53
2024/04/01 04:19:20;;;;;;;13.35;5.05;;;13.80;62.70;;;9.35;100.00;93268.94;4971872;28;20018;-51
2024/04/01 04:21:47;;;;;;;9.68;5.03;;;13.80;63.00;;;9.40;100.00;93306.00;4967321;28;20034;-56
2024/04/01 04:24:16;;;;;;;11.10;4.30;;;13.80;62.90;;;9.41;100.00;93298.81;4969287;28;20117;-49
2024/04/01 04:26:42;;;;;;;14.55;4.65;;;13.80;63.00;;;9.44;100.00;93306.94;4968131;28;20137;-53
2024/04/01 04:29:09;;;;;;;8.60;3.97;;;13.80;62.90;;;9.49;100.00;93308.66;4971700;28;20125;-51
2024/04/01 04:31:36;;;;;;;11.75;4.82;;;13.80;62.90;;;9.49;100.00;93321.94;4964927;28;20049;-49
2024/04/01 04:34:01;;;;;;;8.48;4.93;;;13.80;62.90;;;9.45;100.00;93339.59;4967858;28;20030;-53
2024/04/01 04:36:27;;;;;;;8.93;4.82;;;13.80;63.00;;;9.35;100.00;93351.31;4971343;28;20022;-54
2024/04/01 04:38:53;;;;;;;9.88;5.22;;;13.70;63.40;;;9.22;100.00;93378.81;4972763;28;20523;-54
2024/04/01 04:41:22;;;;;;;8.90;3.63;;;13.70;64.70;;;8.95;100.00;93401.03;4968839;28;20493;-55
2024/04/01 04:43:48;;;;;;;3.35;2.38;;;13.50;65.00;;;8.79;100.00;93433.31;4978785;28;20064;-51
2024/04/01 04:46:15;;;;;;;1.70;0.70;;;13.40;65.20;;;8.53;100.00;93406.63;4968604;28;20381;-55
2024/04/01 04:48:45;;;;;;;1.20;0.77;;;13.20;65.10;;;8.42;100.00;93405.31;4974680;28;20022;-52
2024/04/01 04:51:11;;;;;;;1.08;0.40;;;13.00;65.20;;;8.29;100.00;93404.28;4965627;28;20050;-48
2024/04/01 04:53:38;;;;;;;1.05;0.25;;;12.80;65.20;;;8.17;100.00;93419.16;4970115;28;20045;-50
2024/04/01 04:56:05;;;;;;;0.68;0.30;;;12.70;65.30;;;8.08;100.00;93443.78;4987747;28;20386;-51
2024/04/01 04:58:32;;;;;;;0.57;0.20;;;12.50;65.50;;;7.94;100.00;93450.19;4970156;28;20034;-52
2024/04/01 05:01:05;;;;;;;0.77;0.20;;;12.40;65.90;;;7.90;100.00;93465.91;4969218;28;20041;-53
2024/04/01 05:03:33;;;;;;;1.70;0.20;;;12.30;66.20;;;7.84;100.00;93472.41;4969455;28;20041;-50
2024/04/01 05:06:00;;;;;;;3.38;0.40;;;12.20;66.40;;;7.81;100.00;93473.78;4966248;28;20037;-52
2024/04/01 05:08:26;;;;;;;0.47;0.30;;;12.10;66.70;;;7.81;100.00;93483.59;4972174;28;20022;-51
2024/04/01 05:10:52;;;;;;;0.93;0.30;;;12.00;66.90;;;7.81;100.00;93496.84;4971424;28;20362;-55
2024/04/01 05:13:18;;;;;;;0.60;0.40;;;12.00;67.00;;;7.71;100.00;93497.84;4971940;28;20077;-55
2024/04/01 05:15:44;;;;;;;1.88;0.30;;;11.90;67.10;;;7.67;100.00;93493.44;4974762;28;20018;-54
2024/04/01 05:18:10;;;;;;;0.85;0.40;;;11.90;67.30;;;7.68;100.00;93498.44;4965597;28;20060;-54
2024/04/01 05:20:37;;;;;;;1.08;0.40;;;11.80;67.40;;;7.64;100.00;93503.53;4971562;28;20092;-54
2024/04/01 05:23:03;;;;;;;1.00;0.40;;;11.80;67.60;;;7.54;100.00;93511.69;4971364;28;20029;-51
2024/04/01 05:25:29;;;;;;;0.82;0.40;;;11.80;67.80;;;7.57;100.00;93512.97;4973626;28;20030;-50
2024/04/01 05:27:55;;;;;;;2.70;0.65;;;11.80;67.80;;;7.57;100.00;93512.97;4971461;28;20038;-55
2024/04/01 05:30:23;;;;;;;1.42;0.50;;;11.70;67.80;;;7.52;100.00;93543.00;4969125;28;20029;-52
2024/04/01 05:32:50;;;;;;;1.25;0.60;;;11.70;67.90;;;7.48;100.00;93557.13;4970514;28;20030;-53
2024/04/01 05:35:17;;;;;;;1.20;0.40;;;11.70;68.00;;;7.49;100.00;93561.34;4971423;28;20357;-50
2024/04/01 05:37:44;;;;;;;0.77;0.40;;;11.70;67.90;;;7.48;100.00;93549.97;4981385;28;20034;-53
2024/04/01 05:40:11;;;;;;;2.70;0.30;;;11.60;68.00;;;7.49;100.00;93572.75;4965568;28;20030;-55
2024/04/01 05:42:38;;;;;;;1.00;0.40;;;11.70;67.90;;;7.47;100.00;93574.13;4962623;28;20113;-51
2024/04/01 05:45:04;;;;;;;1.35;0.90;;;11.70;68.00;;;7.46;100.00;93573.34;4967042;28;20034;-51
2024/04/01 05:47:30;;;;;;;2.33;0.75;;;11.60;68.20;;;7.44;100.00;93561.44;4971296;28;20869;-54
2024/04/01 05:49:56;;;;;;;1.05;0.50;;;11.60;68.20;;;7.35;100.00;93562.13;4966386;28;20026;-47
2024/04/01 05:52:22;;;;;;;1.15;0.45;;;11.60;68.30;;;7.33;100.00;93550.25;4969003;28;20034;-51
2024/04/01 05:54:48;;;;;;;2.80;0.50;;;11.60;68.40;;;7.31;100.00;93547.13;4966808;28;20076;-50
2024/04/01 05:57:14;;;;;;;2.20;0.40;;;11.60;68.40;;;7.29;100.00;93546.63;4967047;28;20022;-52
2024/04/01 05:59:40;;;;;;;0.50;0.40;;;11.60;68.40;;;7.27;100.00;93557.53;4963669;28;20058;-49
2024/04/01 06:02:06;;;;;;;0.22;0.22;;;11.50;68.50;;;7.26;100.00;93541.91;4969868;28;22867;-49
2024/04/01 06:04:32;;;;;;;0.55;0.22;;;11.50;68.80;;;7.26;100.00;93555.94;4959701;28;20473;-53
2024/04/01 06:06:58;;;;;;;0.90;0.38;;;11.50;68.70;;;7.26;100.00;93555.16;4966871;28;20034;-48
2024/04/01 06:09:24;;;;;;;2.05;0.45;;;11.40;68.80;;;7.31;100.00;93539.19;4970700;28;20052;-51
2024/04/01 06:11:49;;;;;;;0.63;0.40;;;11.40;69.00;;;7.32;100.00;93567.22;4973252;28;20026;-48
2024/04/01 06:14:15;;;;;;;0.30;0.30;;;11.40;69.00;;;7.36;100.00;93592.84;4961893;28;20109;-51
2024/04/01 06:16:41;;;;;;;0.68;0.35;;;11.50;69.10;;;7.39;100.00;93608.13;4969672;28;20396;-50
2024/04/01 06:19:07;;;;;;;0.63;0.30;;;11.50;69.10;;;7.41;100.00;93605.97;4970195;28;20036;-53
2024/04/01 06:21:33;;;;;;;0.25;0.20;;;11.50;69.00;;;7.42;100.00;93614.72;4968628;28;20089;-51
2024/04/01 06:23:59;;;;;;;1.75;0.30;;;11.50;68.90;;;7.42;100.00;93639.34;4965923;28;20033;-49
2024/04/01 06:26:28;;;;;;;1.13;0.40;;;11.60;68.80;;;7.41;100.00;93643.06;4966088;28;20037;-52
2024/04/01 06:28:55;;;;;;;0.43;0.40;;;11.60;68.80;;;7.44;100.00;93638.28;4962867;28;20050;-52
2024/04/01 06:31:21;;;;;;;0.77;0.45;;;11.60;68.70;;;7.44;100.00;93640.91;4963942;28;20506;-55
2024/04/01 06:33:47;;;;;;;0.60;0.40;;;11.70;68.60;;;7.47;100.00;93659.66;4969235;28;20112;-55
2024/04/01 06:36:13;;;;;;;0.32;0.32;;;11.70;68.50;;;7.49;100.00;93678.72;4969898;28;20076;-57
2024/04/01 06:38:40;;;;;;;0.57;0.40;;;11.70;68.50;;;7.50;100.00;93688.22;4967002;28;20026;-57
2024/04/01 06:41:06;;;;;;;0.52;0.40;;;11.80;68.70;;;7.54;100.00;93691.06;4968958;28;20421;-57
2024/04/01 06:43:33;;;;;;;0.52;0.38;;;11.80;68.60;;;7.52;100.00;93715.22;4965837;28;20618;-58
2024/04/01 06:46:01;;;;;;;1.10;0.50;;;11.80;68.60;;;7.54;100.00;93718.34;4967261;28;20064;-58
2024/04/01 06:48:28;;;;;;;0.70;0.50;;;11.80;68.60;;;7.56;100.00;93713.56;4960229;28;20034;-54
2024/04/01 06:50:54;;;;;;;0.55;0.30;;;11.90;68.60;;;7.55;100.00;93714.66;4965010;28;20068;-54
2024/04/01 06:53:21;;;;;;;4.47;0.40;;;11.90;68.50;;;7.56;100.00;93749.88;4962748;28;20034;-54
2024/04/01 06:55:48;;;;;;;0.40;0.40;;;11.90;68.60;;;7.57;100.00;93722.28;4965654;28;20061;-57
2024/04/01 06:58:15;;;;;;;2.80;1.55;;;11.90;69.20;;;7.57;100.00;93748.78;4966450;28;20040;-54
2024/04/01 07:00:42;;;;;;;0.85;0.32;;;11.90;68.50;;;7.55;100.00;93765.00;4961135;28;20034;-52
2024/04/01 07:03:08;;;;;;;0.30;0.30;;;11.90;68.50;;;7.54;100.00;93746.72;4960928;28;20061;-51
2024/04/01 07:05:35;;;;;;;1.23;0.40;;;11.90;68.60;;;7.53;100.00;93756.53;4967676;28;20030;-50
2024/04/01 07:08:02;;;;;;;0.50;0.20;;;11.90;68.60;;;7.53;100.00;93767.13;4970316;28;20396;-51
2024/04/01 07:10:31;;;;;;;3.03;0.30;;;11.90;68.60;;;7.50;100.00;93780.94;4969215;28;20065;-55
2024/04/01 07:12:57;;;;;;;0.50;0.30;;;11.90;68.60;;;7.54;100.00;93787.25;4964734;28;20144;-48
2024/04/01 07:15:26;;;;;;;0.50;0.35;;;11.90;68.60;;;7.52;100.00;93784.09;4970470;28;20125;-56
2024/04/01 07:17:52;;;;;;;1.35;0.38;;;11.90;68.70;;;7.54;100.00;93784.59;4963907;28;20499;-51
2024/04/01 07:20:18;;;;;;;0.20;0.20;;;11.90;68.60;;;7.47;100.00;93778.09;4969073;28;20096;-52
2024/04/01 07:22:44;;;;;;;0.20;0.20;;;11.90;68.50;;;7.39;100.00;93787.47;4969362;28;20092;-53
2024/04/01 07:25:10;;;;;;;0.45;0.30;;;11.80;68.50;;;7.46;100.00;93801.16;4962282;28;20494;-53
2024/04/01 07:27:37;;;;;;;0.35;0.25;;;11.80;68.30;;;7.45;100.00;93809.38;4969548;28;20040;-53
2024/04/01 07:30:04;;;;;;;0.30;0.20;;;11.90;68.30;;;7.42;100.00;93803.56;4970347;28;20026;-52
2024/04/01 07:32:32;;;;;;;0.25;0.25;;;11.80;68.30;;;7.36;100.00;93788.84;4970522;28;20030;-53
2024/04/01 07:35:01;;;;;;;0.20;0.20;;;11.90;68.20;;;7.40;100.00;93805.75;4964938;28;20062;-54
2024/04/01 07:37:29;;;;;;;0.20;0.20;;;11.90;68.10;;;7.46;100.00;93803.00;4969677;28;20022;-52
2024/04/01 07:39:56;;;;;;;0.20;0.20;;;11.90;67.90;;;7.40;100.00;93823.50;4963089;28;20026;-56
2024/04/01 07:42:22;;;;;;;0.30;0.30;;;11.90;67.80;;;7.40;100.00;93821.63;4971581;28;20026;-49
2024/04/01 07:44:53;;;;;;;0.50;0.30;;;11.90;67.60;;;7.46;100.00;93826.84;4974737;28;20450;-51
2024/04/01 07:47:20;;;;;;;0.20;0.20;;;11.90;67.50;;;7.47;100.00;93828.44;4968907;28;20022;-53
2024/04/01 07:49:48;;;;;;;0.20;0.20;;;12.00;67.50;;;7.45;100.00;93822.63;4969620;28;20026;-50
2024/04/01 07:52:14;;;;;;;0.73;0.30;;;12.00;67.20;;;7.49;100.00;93820.97;4968180;28;20518;-49
2024/04/01 07:54:40;;;;;;;0.55;0.35;;;12.00;67.90;;;7.46;100.00;93834.78;4969972;28;20042;-52
2024/04/01 07:57:08;;;;;;;1.02;0.30;;;12.00;67.00;;;7.44;100.00;93835.09;4967128;28;20436;-52
2024/04/01 07:59:34;;;;;;;0.30;0.30;;;12.00;66.90;;;7.40;100.00;93842.03;4967261;28;20480;-49
2024/04/01 08:02:01;;;;;;;0.40;0.30;;;12.10;66.90;;;7.46;100.00;93840.91;4970759;28;20022;-49
2024/04/01 08:04:30;;;;;;;0.35;0.30;;;12.10;66.80;;;7.48;100.00;93843.25;4970324;28;20400;-55
2024/04/01 08:06:56;;;;;;;0.63;0.30;;;12.10;66.80;;;7.49;100.00;93839.50;4970826;28;20113;-54
2024/04/01 08:09:23;;;;;;;0.40;0.38;;;12.20;66.70;;;7.47;100.00;93831.88;4971086;28;20400;-49
2024/04/01 08:11:51;;;;;;;0.20;0.20;;;12.20;66.40;;;7.55;100.00;93841.81;4968240;28;20018;-53
2024/04/01 08:14:19;;;;;;;0.30;0.30;;;12.20;66.20;;;7.52;100.00;93839.75;4971044;28;20034;-50
2024/04/01 08:16:46;;;;;;;2.60;0.55;;;12.20;66.20;;;7.51;100.00;93856.69;4970410;28;20137;-55
2024/04/01 08:19:15;;;;;;;0.30;0.30;;;12.20;66.10;;;7.55;100.00;93868.31;4971105;28;20030;-49
2024/04/01 08:21:41;;;;;;;0.30;0.30;;;12.30;66.00;;;7.55;100.00;93891.34;4972355;28;20033;-51
2024/04/01 08:24:07;;;;;;;0.57;0.20;;;12.40;65.80;;;7.63;100.00;93896.81;4970312;28;20034;-52
2024/04/01 08:26:33;;;;;;;0.40;0.38;;;12.40;65.60;;;7.69;100.00;93902.84;4970992;28;20104;-53
2024/04/01 08:28:59;;;;;;;2.22;0.30;;;12.50;65.40;;;7.62;99.59;93905.84;4969165;28;20723;-52
2024/04/01 08:31:25;;;;;;;0.20;0.20;;;12.50;65.10;;;7.64;99.00;93895.72;4970121;28;20033;-51
2024/04/01 08:33:51;;;;;;;1.00;0.40;;;12.50;64.80;;;7.72;99.70;93904.13;4970587;28;20054;-51
2024/04/01 08:36:17;;;;;;;0.30;0.30;;;12.50;64.50;;;7.69;97.71;93920.59;4970689;28;20065;-52
2024/04/01 08:38:44;;;;;;;0.30;0.28;;;12.60;64.40;;;7.68;98.49;93926.97;4971204;28;20058;-48
2024/04/01 08:41:32;;;;;;;0.20;0.20;;;12.60;64.10;;;7.75;97.26;93924.75;4968662;28;20392;-51
2024/04/01 08:44:17;;;;;;;0.30;0.30;;;12.70;64.00;;;7.75;97.27;93945.97;4975040;28;20053;-50
2024/04/01 08:46:49;;;;;;;0.30;0.30;;;12.60;63.70;;;7.69;96.29;93958.50;4970140;28;20421;-51
2024/04/01 08:49:19;;;;;;;0.20;0.20;;;12.70;63.50;;;7.73;95.57;93956.84;4966932;28;20096;-49
2024/04/01 08:51:50;;;;;;;0.20;0.20;;;12.70;63.30;;;7.81;95.86;93969.47;4972655;28;20018;-49
2024/04/01 08:54:16;;;;;;;0.30;0.30;;;12.70;63.00;;;7.80;94.19;93975.03;4956902;28;20441;-53
2024/04/01 08:56:42;;;;;;;0.60;0.30;;;12.80;62.80;;;7.81;92.11;93966.03;4972053;28;20105;-52
2024/04/01 08:59:09;;;;;;;1.52;0.50;;;12.80;62.50;;;7.85;92.56;93954.56;4969832;28;20395;-48
2024/04/01 09:01:36;;;;;;;0.50;0.50;;;12.90;62.30;;;7.89;90.46;93949.47;4968966;28;20092;-51
2024/04/01 09:04:03;;;;;;;0.30;0.30;;;13.00;61.80;;;7.92;88.91;93948.09;4966671;28;20089;-51
2024/04/01 09:06:30;;;;;;;0.30;0.20;;;13.10;61.30;;;7.96;89.42;93954.41;4971641;28;20552;-48
2024/04/01 09:08:57;;;;;;;0.47;0.47;;;13.10;60.80;;;7.98;89.19;93966.31;4972215;28;20045;-49
2024/04/01 09:11:29;;;;;;;0.95;0.40;;;13.10;60.50;;;7.95;88.22;93979.34;4965458;28;20030;-52
2024/04/01 09:13:55;;;;;;;0.32;0.30;;;13.10;60.00;;;8.00;86.93;93977.41;4979769;28;20485;-49
2024/04/01 09:16:28;;;;;;;0.35;0.35;;;13.10;59.90;;;8.02;86.70;93987.72;4966712;28;20044;-50
2024/04/01 09:19:07;;;;;;;0.20;0.20;;;13.10;59.70;;;8.01;85.61;93978.97;4965037;28;20114;-49
2024/04/01 09:21:38;;;;;;;0.40;0.35;;;13.20;59.60;;;8.02;84.61;93983.22;4967796;28;20412;-52
2024/04/01 09:24:04;;;;;;;1.40;1.02;;;13.10;59.30;;;8.00;83.79;93981.94;4968669;28;20033;-52
2024/04/01 09:26:32;;;;;;;1.30;0.63;;;13.10;58.70;;;7.99;83.39;94005.03;4966597;28;20037;-54
2024/04/01 09:29:02;;;;;;;1.95;1.00;;;13.10;58.50;;;8.01;84.56;94007.38;4970394;28;20103;-59
2024/04/01 09:31:28;;;;;;;1.05;0.85;;;13.10;58.40;;;8.01;84.87;94008.16;4968507;28;20033;-52
2024/04/01 09:33:55;;;;;;;0.88;0.70;;;13.00;58.40;;;7.96;83.44;94013.53;4969082;28;20030;-57
2024/04/01 09:36:23;;;;;;;1.20;0.82;;;13.00;58.30;;;7.99;83.09;94023.59;4968416;28;20029;-50
2024/04/01 09:38:52;;;;;;;1.67;1.00;;;13.00;58.00;;;7.93;81.05;94014.13;4969395;28;20041;-50
2024/04/01 09:41:18;;;;;;;0.70;0.65;;;13.00;57.60;;;7.95;81.18;94038.47;4968538;28;20451;-51
2024/04/01 09:43:44;;;;;;;0.75;0.73;;;13.00;57.40;;;8.02;81.45;94040.75;4969740;28;20069;-49
2024/04/01 09:46:10;;;;;;;1.65;0.90;;;13.00;57.40;;;8.10;81.79;94045.44;4984842;28;20358;-54
2024/04/01 09:48:37;;;;;;;0.40;0.40;;;13.00;57.50;;;8.07;80.41;94052.09;4984187;28;20026;-56
2024/04/01 09:51:07;;;;;;;0.20;0.20;;;13.10;57.30;;;8.07;79.81;94053.97;4985094;28;20121;-54
2024/04/01 09:53:33;;;;;;;0.40;0.40;;;13.10;57.10;;;8.12;80.75;94053.91;4981904;28;20033;-51
2024/04/01 09:57:04;;;;;;;0.60;0.60;;;13.20;57.00;;;8.20;80.95;94060.41;4970201;28;20721;-53
2024/04/01 10:00:30;;;;;;;0.52;0.50;;;13.30;57.00;;;8.25;79.84;94070.97;4969859;28;20060;-54
2024/04/01 10:03:40;;;;;;;0.35;0.25;;;13.30;56.70;;;8.29;79.67;94080.72;4957085;28;20049;-53
2024/04/01 10:06:46;;;;;;;0.40;0.35;;;13.40;56.50;;;8.27;80.80;94088.19;4967488;28;20077;-55
2024/04/01 10:10:05;;;;;;;0.38;0.38;;;13.50;56.20;;;8.34;79.33;94096.56;4956233;28;20030;-52
2024/04/01 10:13:31;;;;;;;1.05;0.70;;;13.50;56.10;;;8.30;79.22;94100.06;4969125;28;20046;-57
2024/04/01 10:16:33;;;;;;;0.40;0.40;;;13.50;56.00;;;8.37;79.80;94102.38;4977185;28;20056;-54
2024/04/01 10:20:00;;;;;;;0.30;0.30;;;13.50;55.80;;;8.39;80.01;94113.53;4969446;28;20034;-55
2024/04/01 10:23:12;;;;;;;0.52;0.38;;;13.60;55.80;;;8.41;80.38;94104.22;4966580;28;20300;-55
2024/04/01 10:26:31;;;;;;;0.20;0.20;;;13.60;55.80;;;8.46;80.61;94092.72;4984308;28;20045;-57
2024/04/01 10:29:15;;;;;;;0.20;0.20;;;13.60;55.80;;;8.35;78.78;94090.19;4963510;28;20153;-52
2024/04/01 10:32:52;;;;;;;0.32;0.25;;;13.70;55.30;;;8.54;80.69;94100.81;4970476;28;20489;-52